Tiempo atmosférico en la estación meteorológica de Palma Aeropuerto, Illes Balears (8 m.)



Fecha
DESCASC
Temp. máxima en grados centígrados (hora)
DESCASC
Temp. mínima en grados centígrados (hora)
DESCASC
Temp. media en grados centígrados
DESCASC
Racha de viento máxima en m/sg (hora)
DESCASC
Velocidad máxima media en intervalos de 10 minutos(hora)
DESCASC
Precipitaciones diarias en mm
DESCASC
Precipitaciones de 00:00 a 06:00 en mm
DESCASC
Precipitaciones de 06:00 a 12:00 en mm
DESCASC
Precipitaciones de 12:00 a 18:00 en mm
DESCASC
Precipitaciones de 18:00 a 24:00 en mm
DESCASC

Gráficas

Temp. máximas Temp. mínimas Temp. medias Precipitaciones Rachas de viento máximas Velocidades máximas media en intervalos de 10 minutos

Datos horarios

Fecha y hora oficial Temperatura (ºC) Velocidad del viento (km/h) Dirección del viento Racha (km/h) Dirección de racha Precipitación (mm) Presión (hPa) Tendencia (hPa) Humedad (%)
2020-07-02 23:00:00 25.1 13 Este 24 Nordeste 0 1013.6 2.1 81
2020-07-02 22:00:00 25.6 4 Noroeste 13 Oeste 0 1012.5 0.8 81
2020-07-02 21:00:00 27.1 6 Sur 13 Sudoeste 0 1011.8 0.3 75
2020-07-02 20:00:00 28 8 Sudoeste 21 Sur 0 1011.5 -0.1 69
2020-07-02 19:00:00 28.3 15 Sudoeste 26 Sudoeste 0 1011.7 -0.1 68
2020-07-02 18:00:00 28.9 18 Sudoeste 32 Sudoeste 0 1011.5 -0.4 66
2020-07-02 17:00:00 28.8 23 Sudoeste 33 Sudoeste 0 1011.6 -1 65
2020-07-02 16:00:00 29.2 24 Sudoeste 33 Sudoeste 0 1011.8 -1.2 63
2020-07-02 15:00:00 30.1 21 Sudoeste 28 Sudoeste 0 1011.9 -1.2 58
2020-07-02 14:00:00 29.8 17 Sudoeste 24 Sudoeste 0 1012.6 0 62
2020-07-02 13:00:00 29.2 17 Sudoeste 32 Sudoeste 0 1013 0.6 64
2020-07-02 12:00:00 28.5 23 Sudoeste 32 Sudoeste 0 1013.1 -- 65
2020-07-02 11:00:00 29.7 8 Este 17 Este 0 1012.6 -- 56
2020-07-02 10:00:00 27.8 7 Nordeste 15 Nordeste 0 1012.4 -- 62
2020-07-02 09:00:00 26.2 5 Nordeste 13 Norte 0 1012.6 -- 73
2020-07-02 08:00:00 24.2 5 Nordeste 9 Norte 0 1012.5 -- 86
2020-07-02 07:00:00 23.2 6 Norte 8 Norte 0 1012.4 -- 90
2020-07-02 06:00:00 22.7 5 Sudeste 11 Sur 0 1012.2 -- 91
2020-07-02 05:00:00 22.2 7 Este 15 Este 0 1011.5 -- 91
2020-07-02 04:00:00 22.9 13 Este 17 Este 0 1011.5 -- 89
2020-07-02 03:00:00 23.2 11 Este 17 Este 0 1011.7 -- 90
2020-07-02 02:00:00 23.1 4 Este 15 Este 0 1012 -- 91
2020-07-02 01:00:00 23.3 10 Este 13 Nordeste 0 1011.8 -- 92
2020-07-02 00:00:00 25.1 8 Sur 13 Sur 0 1011.6 -- 87
2020-07-01 23:00:00 25.2 8 Oeste 28 Sudoeste 0 1011.2 -- 86
2020-07-01 22:00:00 25.6 23 Sudoeste 32 Sudoeste 0 1010.5 -- 85
2020-07-01 21:00:00 26.6 19 Sudoeste 30 Sudoeste 0 1009.9 -- 79
2020-07-01 20:00:00 27.8 25 Sudoeste 39 Sudoeste 0 1009.5 -- 71
2020-07-01 19:00:00 29.5 29 Sudoeste 39 Sudoeste 0 1009.3 -- 63
2020-07-01 18:00:00 30.4 31 Sudoeste 42 Sudoeste 0 1009.3 -- 60
2020-07-01 17:00:00 31.8 36 Sudoeste 46 Sudoeste 0 1009.4 -- 49
2020-07-01 16:00:00 31.8 31 Sudoeste 41 Sudoeste 0 1009.3 -- 55
2020-07-01 15:00:00 31.3 27 Sudoeste 41 Oeste 0 1009.5 -- 55
2020-07-01 14:00:00 30.3 31 Oeste 42 Sudoeste 0 1009.7 -- 54
2020-07-01 13:00:00 30.6 31 Oeste 42 Sudoeste 0 1009.9 -- 51
2020-07-01 12:00:00 31.9 9 Sudoeste 17 Sudoeste 0 1009.7 -- 46
2020-07-01 11:00:00 30.4 5 Sudeste 17 Este 0 1010 -- 49
2020-07-01 10:00:00 28.6 11 Este 28 Este 0 1010.2 -- 55
2020-07-01 09:00:00 27.1 16 Este 26 Este 0 1010.2 -- 59
2020-07-01 08:00:00 24.4 12 Este 17 Este 0 1009.7 -- 60
2020-07-01 07:00:00 22.7 9 Sudeste 13 Sudeste 0 1009.9 -- 66
2020-07-01 06:00:00 20.8 3 Este 11 Este 0 1009.6 -- 74
2020-07-01 05:00:00 21.6 5 Nordeste 13 Nordeste 0 1010.1 -- 76
2020-07-01 04:00:00 23.2 4 Este 18 Este 0 1010.4 -- 68
2020-07-01 03:00:00 25.2 16 Este 28 Este 0 1010.3 -- 58
2020-07-01 02:00:00 23.4 10 Nordeste 21 Nordeste 0 1011.5 -- 73
2020-07-01 01:00:00 23.6 10 Nordeste 21 Nordeste 0 1012.3 -- 79
2020-07-01 00:00:00 24.1 15 Este 21 Este 0 1012.6 -- 74
2020-06-30 23:00:00 25.3 14 Este 24 Este 0 1012.1 -- 62
2020-06-30 22:00:00 27.4 15 Nordeste 21 Nordeste 0 1011.3 -- 54
2020-06-30 21:00:00 28.8 8 Sudeste 13 Sudeste 0 1011.5 -- 49
2020-06-30 20:00:00 29.9 9 Oeste 22 Oeste 0 1011.4 -- 53
2020-06-30 19:00:00 29.9 17 Oeste 26 Noroeste 0 1011.5 -- 50
2020-06-30 18:00:00 30.8 16 Oeste 30 Oeste 0 1011.8 -- 50
2020-06-30 17:00:00 32.8 21 Sudoeste 30 Sudoeste 0 1012.4 -- 41
2020-06-30 16:00:00 34.4 22 Sudoeste 32 Sudoeste 0 1012.8 -- 35
2020-06-30 15:00:00 35 15 Sudeste 28 Sudeste 0 1013.1 -- 30
2020-06-30 14:00:00 32.3 18 Oeste 32 Sudoeste 0 1013.6 -- 44
2020-06-30 13:00:00 29.9 22 Oeste 32 Sudoeste 0 1014.1 -- 58
2020-06-30 12:00:00 29.8 17 Sudoeste 22 Oeste 0 1014.2 -- 58
2020-06-30 11:00:00 30.1 7 Sur 18 Este 0 1014.6 -- 54
2020-06-30 10:00:00 27.6 9 Este 18 Este 0 1014.7 -- 67
2020-06-30 09:00:00 25.4 13 Nordeste 22 Este 0 1014.4 -- 78
2020-06-30 08:00:00 23.2 10 Nordeste 13 Este 0 1014.2 -- 87
2020-06-30 07:00:00 20.3 6 Norte 9 Norte 0 1014.2 -- 82
2020-06-30 06:00:00 19.8 4 Nordeste 8 Nordeste 0 1014.1 -- 90
2020-06-30 05:00:00 19.9 4 Nordeste 5 Nordeste 0 1014.2 -- 89
2020-06-30 04:00:00 20.3 3 Norte 5 Norte 0 1014.4 -- 89
2020-06-30 03:00:00 21 5 Norte 9 Norte 0 1014.8 -- 87
2020-06-30 02:00:00 21.4 5 Nordeste 11 Nordeste 0 1015.2 -- 90
2020-06-30 01:00:00 21.9 8 Nordeste 9 Nordeste 0 1015.2 -- 91
2020-06-30 00:00:00 22.5 5 Este 8 Este 0 1015.2 -- 88
2020-06-29 23:00:00 23.4 7 Nordeste 9 Nordeste 0 1015.1 -- 87
2020-06-29 22:00:00 24.2 4 Noroeste 15 Oeste 0 1014.9 -- 85
2020-06-29 21:00:00 25.4 12 Sudoeste 22 Sudoeste 0 1014.8 -- 80
2020-06-29 20:00:00 26.3 18 Sudoeste 33 Sudoeste 0 1014.8 -- 76
2020-06-29 19:00:00 26.9 24 Sudoeste 33 Sudoeste 0 1015 -- 74
2020-06-29 18:00:00 27.4 27 Sudoeste 35 Sudoeste 0 1015.4 -- 70
2020-06-29 17:00:00 27.9 23 Sudoeste 35 Sudoeste 0 1015.4 -- 65
2020-06-29 16:00:00 28.1 26 Sudoeste 37 Sudoeste 0 1015.9 -- 65
2020-06-29 15:00:00 28.5 27 Sudoeste 33 Sudoeste 0 1016.2 -- 64
2020-06-29 14:00:00 28.4 26 Sudoeste 37 Sudoeste 0 1016.6 -- 65
2020-06-29 13:00:00 28.8 23 Sudoeste 32 Sudoeste 0 1016.9 -- 62
2020-06-29 12:00:00 28.9 22 Sudoeste 28 Sudoeste 0 1016.9 -- 56
2020-06-29 11:00:00 30.2 8 Sudoeste 17 Sudoeste 0 1016.6 -- 50
2020-06-29 10:00:00 28.6 4 Este 11 Sur 0 1016.6 -- 58
2020-06-29 09:00:00 25.5 7 Este 13 Este 0 1016.7 -- 75
2020-06-29 08:00:00 23.3 3 Norte 8 Norte 0 1016.5 -- 80
2020-06-29 07:00:00 20.5 4 Nordeste 8 Norte 0 1016.1 -- 94
2020-06-29 06:00:00 20.4 5 Nordeste 8 Nordeste 0 1015.8 -- 94
2020-06-29 05:00:00 20.8 4 Este -- -- 0 1015.7 -- 92
2020-06-29 04:00:00 21.2 5 Nordeste 8 Norte 0 1016 -- 91
2020-06-29 03:00:00 22.1 6 Norte 8 Norte 0 1016.4 -- 91
2020-06-29 02:00:00 23.4 4 Este 11 Oeste 0 1016.5 -- 86
2020-06-29 01:00:00 23.9 7 Oeste 13 Sudoeste 0 1016.7 -- 86
2020-06-29 00:00:00 24.4 10 Sudoeste 15 Sudoeste 0 1016.7 -- 84
2020-06-28 23:00:00 24.5 10 Sudoeste 17 Sudoeste 0 1016.6 -- 84
2020-06-28 22:00:00 24.6 12 Sudoeste 22 Sur 0 1016.2 -- 82
2020-06-28 21:00:00 25.2 14 Sudoeste 22 Sur 0 1016 -- 77
2020-06-28 20:00:00 26.3 16 Sudoeste 26 Sudoeste 0 1015.8 -- 72
2020-06-28 19:00:00 27.1 20 Sudoeste 32 Sudoeste 0 1016 -- 69
2020-06-28 18:00:00 27.3 23 Sudoeste 32 Sudoeste 0 1016.4 -- 69
2020-06-28 17:00:00 28.4 22 Sudoeste 28 Sur 0 1016.4 -- 63
2020-06-28 16:00:00 28.4 21 Sur 33 Sudoeste 0 1016.8 -0.6 65
2020-06-28 15:00:00 28.1 24 Sudoeste 33 Sudoeste 0 1017.2 -- 68
2020-06-28 14:00:00 28.4 22 Sudoeste 32 Sudoeste 0 1017.3 -- 59
2020-06-28 13:00:00 27.8 24 Sudoeste 33 Sudoeste 0 1017.4 -- 63
2020-06-28 12:00:00 27.5 26 Sudoeste 32 Sudoeste 0 1017.3 -- 66
2020-06-28 11:00:00 29.3 4 Este 13 Nordeste 0 1016.8 -- 55
2020-06-28 10:00:00 26.9 4 Este 11 Este 0 1016.9 -- 64
2020-06-28 09:00:00 25.4 4 Este 11 Este 0 1016.8 -- 72
2020-06-28 08:00:00 22.4 7 Este 11 Nordeste 0 1016.5 -- 83
2020-06-28 07:00:00 20.3 3 Sur 5 Sudeste 0 1016 -- 87
2020-06-28 06:00:00 19.7 4 Este 8 Nordeste 0 1015.8 -- 91
2020-06-28 05:00:00 20.7 3 Norte -- -- 0 1015.8 -- 90
2020-06-28 04:00:00 21 4 Nordeste 9 Este 0 1016.1 -- 90
2020-06-28 03:00:00 21.1 5 Este 5 Este 0 1016.5 -- 87
2020-06-28 02:00:00 22 3 Noroeste 5 Nordeste 0 1016.5 -- 87
2020-06-28 01:00:00 22.6 4 Nordeste 13 Este 0 1016.3 -- 84
2020-06-28 00:00:00 23.5 11 Este 21 Nordeste 0 1015.8 -- 80
2020-06-27 23:00:00 24.4 12 Nordeste 17 Nordeste 0 1015.4 -- 77
2020-06-27 22:00:00 25.2 5 Sur 15 Sudoeste 0 1014.7 -- 70
2020-06-27 21:00:00 26.1 11 Sur 22 Sudoeste 0 1014.1 -- 71
2020-06-27 20:00:00 27.5 17 Sur 26 Sur 0 1013.8 -- 63
2020-06-27 19:00:00 28.6 15 Sur 24 Sudoeste 0 1013.8 -- 58
2020-06-27 18:00:00 29.2 19 Sudoeste 35 Sudoeste 0 1014 -- 55
2020-06-27 17:00:00 29.2 25 Sudoeste 33 Sudoeste 0 1014.2 -- 53
2020-06-27 16:00:00 29.5 26 Sudoeste 33 Sudoeste 0 1014.1 -- 54
2020-06-27 15:00:00 29.3 25 Sudoeste 35 Sudoeste 0 1014.1 -- 55
2020-06-27 14:00:00 29.3 25 Sudoeste 32 Sudoeste 0 1014.2 -- 55
2020-06-27 13:00:00 29.2 21 Sudoeste 30 Sudoeste 0 1014.3 -- 54
2020-06-27 12:00:00 29.5 11 Sudoeste 18 Sudoeste 0 1014.2 -- 51
2020-06-27 11:00:00 27.9 6 Noroeste 15 Norte 0 1014.1 -- 53
2020-06-27 10:00:00 26.3 5 Norte 11 Nordeste 0 1014.3 -- 65
2020-06-27 09:00:00 24.4 5 Nordeste 11 Este 0 1014 -- 75
2020-06-27 08:00:00 23.9 8 Este 11 Este 0 1013.6 -- 76
2020-06-27 07:00:00 22.4 6 Nordeste 9 Nordeste 0 1013.4 -- 82
2020-06-27 06:00:00 22.7 6 Nordeste 13 Este 0 1013 -- 80
2020-06-27 05:00:00 23.6 9 Este 13 Nordeste 0 1013 -- 76
2020-06-27 04:00:00 23.6 8 Nordeste 15 Este 0 1013 -- 76
2020-06-27 03:00:00 23.8 13 Nordeste 17 Este 0 1013.5 -- 77
2020-06-27 02:00:00 23.6 12 Este 18 Nordeste 0 1013.5 -- 77
2020-06-27 01:00:00 23.1 11 Nordeste 15 Este 0 1013.7 -- 79
2020-06-27 00:00:00 22.5 8 Nordeste 18 Este 0 1013.9 -- 78
2020-06-26 23:00:00 24.3 14 Este 21 Sudeste 0 1013.6 -- 68
2020-06-26 22:00:00 25.4 12 Este 22 Este 0 1012.8 -- 53
2020-06-26 21:00:00 27.5 14 Este 26 Este 0 1012 -- 41
2020-06-26 20:00:00 29.9 21 Este 30 Este 0 1011.5 -- 33
2020-06-26 19:00:00 31.8 20 Este 42 Sudeste 0 1011.5 -- 30
2020-06-26 18:00:00 33.2 16 Sudeste 32 Sudeste 0 1012 -- 27
2020-06-26 17:00:00 33.6 23 Sudeste 35 Sudeste 0 1012.8 -- 26
2020-06-26 16:00:00 33.5 19 Sudeste 41 Sudeste 0 1013.3 -- 26
2020-06-26 15:00:00 34 23 Sudeste 37 Sudeste 0 1013.4 -- 26
2020-06-26 14:00:00 32.6 17 Oeste 30 Oeste 0 1013.5 -- 37
2020-06-26 13:00:00 31.5 12 Sudoeste 24 Sudoeste 0 1013.9 -- 39
2020-06-26 12:00:00 31.1 19 Sudoeste 45 Este 0 1014 -- 34
2020-06-26 11:00:00 31.3 14 Este 24 Este 0 1014.1 -- 27
2020-06-26 10:00:00 29 7 Este 15 Este 0 1014.7 -- 33
2020-06-26 09:00:00 25.8 4 Este 9 Sudeste 0 1014.7 -- 42
2020-06-26 08:00:00 22.3 4 Nordeste 8 Nordeste 0 1014.8 -- 50
2020-06-26 07:00:00 19.1 6 Nordeste 9 Norte 0 1014.7 -- 61
2020-06-26 06:00:00 19 8 Norte 9 Norte 0 1014.5 -- 60
2020-06-26 05:00:00 19 2 Norte 8 Nordeste 0 1014.7 -- 58
2020-06-26 04:00:00 19.7 3 Este 8 Nordeste 0 1014.7 -- 58
2020-06-26 03:00:00 20 4 Nordeste -- -- 0 1015 -- 61
2020-06-26 02:00:00 21.3 4 Este 5 Este 0 1015.6 -- 56
2020-06-26 01:00:00 21.7 3 Sudeste 9 Este 0 1015.5 -- 56
2020-06-26 00:00:00 23.6 8 Este 21 Este 0 1015.5 -- 50
2020-06-25 23:00:00 24.5 14 Este 21 Nordeste 0 1015.2 -- 46
2020-06-25 22:00:00 25.3 13 Nordeste 24 Este 0 1014.6 -- 44
2020-06-25 21:00:00 27.6 14 Este 28 Este 0 1014.2 -- 39
2020-06-25 20:00:00 29.9 23 Este 28 Este 0 1013.9 -- 32
2020-06-25 19:00:00 32.1 22 Sudeste 33 Sudeste 0 1013.7 -- 27
2020-06-25 18:00:00 33.3 22 Sudeste 39 Sudeste 0 1014 -- 23
2020-06-25 17:00:00 33.9 20 Este 41 Sudeste 0 1014.3 -- 23
2020-06-25 16:00:00 34 19 Este 32 Este 0 1014.5 -- 23
2020-06-25 15:00:00 33.6 19 Este 32 Nordeste 0 1014.5 -- 21
2020-06-25 14:00:00 33.3 16 Este 30 Este 0 1014.9 -- 25
2020-06-25 13:00:00 33.5 10 Este 30 Este 0 1015.3 -- 22
2020-06-25 12:00:00 32.8 15 Sudeste 26 Sudeste 0 1015.5 -- 25
2020-06-25 11:00:00 30.4 15 Este 28 Este 0 1015.7 -- 29
2020-06-25 10:00:00 28.8 18 Este 24 Este 0 1015.6 -- 32
2020-06-25 09:00:00 26.6 16 Este 21 Este 0 1015.5 -- 38
2020-06-25 08:00:00 22.5 4 Este 9 Nordeste 0 1015.4 -- 51
2020-06-25 07:00:00 19 4 Nordeste 8 Nordeste 0 1015.5 -- 65
2020-06-25 06:00:00 18.9 6 Nordeste 9 Nordeste 0 1015.4 -- 65
2020-06-25 05:00:00 19.3 4 Sudoeste 13 Este 0 1015.3 -- 65
2020-06-25 04:00:00 20.3 6 Nordeste 13 Este 0 1015.4 -- 66
2020-06-25 03:00:00 19.7 10 Nordeste 13 Este 0 1016.3 -- 73
2020-06-25 02:00:00 20.5 3 Norte 8 Norte 0 1017.1 -- 70
2020-06-25 01:00:00 21.8 5 Nordeste 13 Nordeste 0 1016.8 -- 64
2020-06-25 00:00:00 22 6 Nordeste 11 Este 0 1016.7 -- 73
2020-06-24 23:00:00 23.3 8 Nordeste 13 Nordeste 0 1016.9 -- 78
2020-06-24 22:00:00 25.1 10 Sur 17 Sur 0 1016.8 -- 63
2020-06-24 21:00:00 26.2 11 Sudoeste 18 Sudoeste 0 1016.2 -- 55
2020-06-24 20:00:00 26.2 18 Sudoeste 28 Sudoeste 0 1015.8 -- 64
2020-06-24 19:00:00 27.9 20 Sudoeste 28 Sudoeste 0 1015.8 -- 52
2020-06-24 18:00:00 28.1 13 Sudoeste 24 Oeste 0 1015.9 -- 50
2020-06-24 17:00:00 28.8 13 Sudoeste 33 Sudoeste 0 1016.2 -- 44
2020-06-24 16:00:00 28.5 22 Sudoeste 33 Sudoeste 0 1016.9 -- 44
2020-06-24 15:00:00 28.8 27 Sudoeste 39 Sudoeste 0 1016.6 -- 44
2020-06-24 14:00:00 28.1 29 Sudoeste 37 Sudoeste 0 1016.4 -- 53
2020-06-24 13:00:00 29.7 20 Sudoeste 28 Sudoeste 0 1016.3 -- 42
2020-06-24 12:00:00 30.6 12 Este 24 Este 0 1016.4 -- 35
2020-06-24 11:00:00 28.6 13 Este 24 Este 0 1016.5 -- 39
2020-06-24 10:00:00 26.9 14 Este 24 Este 0 1016.6 -- 45
2020-06-24 09:00:00 25.1 7 Este 11 Este 0 1016.9 -- 57
2020-06-24 08:00:00 21 4 Norte 9 Este 0 1016.5 -- 75
2020-06-24 07:00:00 18.1 8 Nordeste 11 Nordeste 0 1016.3 -- 88
2020-06-24 06:00:00 17.6 7 Este 9 Nordeste 0 1016.5 -- 93
2020-06-24 05:00:00 18.5 6 Nordeste -- -- 0 1016.8 -- 92
2020-06-24 04:00:00 19.1 7 Este 9 Este 0 1017 -- 90
2020-06-24 03:00:00 19.5 4 Nordeste 11 Este 0 1017 -- 88
2020-06-24 02:00:00 20.1 0 Calma 11 Este 0 1017.4 -- 86
2020-06-24 01:00:00 20.7 8 Este 11 Este 0 1017.4 -- 83
2020-06-24 00:00:00 21.6 8 Nordeste -- -- 0 1017.6 -- 78
2020-06-23 23:00:00 22.3 -- -- -- -- 0 1017.4 -- 79
2020-06-23 22:00:00 23 4 Noroeste 13 Oeste 0 1016.8 -- 76
2020-06-23 21:00:00 25 11 Oeste 18 Sudoeste 0 1016.4 -- 66
2020-06-23 20:00:00 26.2 14 Oeste 21 Sudoeste 0 1016.4 -- 59
2020-06-23 19:00:00 26.7 16 Sudoeste 26 Sudoeste 0 1016.6 -- 55
2020-06-23 18:00:00 27.3 19 Sudoeste 28 Sudoeste 0 1017 -- 53
2020-06-23 17:00:00 27.6 20 Sudoeste 30 Sudoeste 0 1017.2 -- 52
2020-06-23 16:00:00 27.8 22 Sudoeste 33 Sudoeste 0 1017.8 -- 51
2020-06-23 15:00:00 27.6 24 Sudoeste 32 Sudoeste 0 1018 -- 51
2020-06-23 14:00:00 27.8 23 Sudoeste 30 Sudoeste 0 1018.5 -- 48
2020-06-23 13:00:00 27.6 21 Sudoeste 30 Sudoeste 0 1018.9 -- 48
2020-06-23 12:00:00 27.1 18 Sudoeste 24 Sudoeste 0 1019.1 -- 53
2020-06-23 11:00:00 26.6 12 Sudoeste 18 Sudoeste 0 1019.1 -- 53
2020-06-23 10:00:00 26 9 Sudoeste 13 Sudoeste 0 1019.3 -- 52
2020-06-23 09:00:00 24.2 3 Sudeste 8 Este 0 1019.2 -- 68
2020-06-23 08:00:00 20.8 5 Este 5 Nordeste 0 1019 -- 80
2020-06-23 07:00:00 17.7 2 Norte -- -- 0 1018.8 -- 91
2020-06-23 06:00:00 17.5 4 Nordeste 8 Nordeste 0 1018.6 -- 93
2020-06-23 05:00:00 17.8 6 Este -- -- 0 1018.8 -- 90
2020-06-23 04:00:00 18.6 6 Este 9 Este 0 1019 -- 90
2020-06-23 03:00:00 19.1 0 Calma 5 Este 0 1019.4 -- 88
2020-06-23 02:00:00 19.3 5 Nordeste 8 Este 0 1019.9 -- 89
2020-06-23 01:00:00 19.9 6 Nordeste 11 Este 0 1020.1 -- 85
2020-06-23 00:00:00 21.1 5 Este 8 Este 0 1020.1 -- 82
2020-06-22 23:00:00 22.7 4 Oeste 11 Sudoeste 0 1020.1 -- 75
2020-06-22 22:00:00 23.6 9 Sudoeste 18 Sudoeste 0 1019.5 -- 71
2020-06-22 21:00:00 24.4 13 Sudoeste 24 Sudoeste 0 1019.4 -- 69
2020-06-22 20:00:00 25.4 19 Sudoeste 30 Sudoeste 0 1019.2 -- 63
2020-06-22 19:00:00 26.3 23 Sudoeste 33 Sudoeste 0 1019.3 -- 59
2020-06-22 18:00:00 26.9 24 Sudoeste 33 Sudoeste 0 1019.5 -- 55
2020-06-22 17:00:00 27.5 26 Sudoeste 37 Sudoeste 0 1020.1 -- 51
2020-06-22 16:00:00 27.8 26 Sudoeste 37 Sudoeste 0 1020.7 -- 48
2020-06-22 15:00:00 28 26 Sudoeste 35 Sudoeste 0 1021.1 -- 47
2020-06-22 14:00:00 27.9 30 Sudoeste 37 Sudoeste 0 1021.4 -- 48
2020-06-22 13:00:00 27.5 27 Sudoeste 33 Sudoeste 0 1021.3 -- 55
2020-06-22 12:00:00 26.8 21 Sudoeste 26 Sudoeste 0 1021.2 -- 60
2020-06-22 11:00:00 27.1 18 Sudoeste 26 Sudoeste 0 1021 -- 50
2020-06-22 10:00:00 27.4 7 Sudoeste 11 Sur 0 1021.2 -- 51
2020-06-22 09:00:00 24.5 3 Norte 5 Norte 0 1021.2 -- 65
2020-06-22 08:00:00 21.2 0 Calma 5 Norte 0 1021.1 -- 78
2020-06-22 07:00:00 18.1 3 Nordeste 8 Este 0 1020.9 -- 90
2020-06-22 06:00:00 17.7 8 Nordeste 11 Nordeste 0 1020.8 -- 92
2020-06-22 05:00:00 18.4 9 Este 9 Este 0 1021 -- 88
2020-06-22 04:00:00 19.1 7 Norte 9 Norte 0 1021 -- 89
2020-06-22 03:00:00 19.2 5 Norte 8 Norte 0 1021.4 -- 89
2020-06-22 02:00:00 19.6 5 Nordeste 11 Este 0 1021.5 -- 87
2020-06-22 01:00:00 20 8 Este -- -- 0 1021.4 -- 85
2020-06-22 00:00:00 20.6 10 Este 13 Este 0 1021.2 -- 83
2020-06-21 23:00:00 23.1 12 Sudoeste 17 Sudoeste 0 1020.6 -- 77
2020-06-21 22:00:00 23.5 13 Sudoeste 21 Sudoeste 0 1020.1 -- 74
2020-06-21 21:00:00 24.2 17 Sudoeste 24 Sur 0 1019.8 -- 67
2020-06-21 20:00:00 25.5 18 Sudoeste 26 Sudoeste 0 1019.6 -- 58
2020-06-21 19:00:00 26.9 18 Sudoeste 30 Sudoeste 0 1019.5 -- 46
2020-06-21 18:00:00 27.3 21 Sudoeste 28 Sudoeste 0 1019.9 -- 45
2020-06-21 17:00:00 27.5 21 Sudoeste 32 Sudoeste 0 1020.1 -- 41
2020-06-21 16:00:00 27.9 23 Sudoeste 32 Sudoeste 0 1020.7 -- 42
2020-06-21 15:00:00 27.7 22 Sudoeste 37 Sudoeste 0 1021 -- 46
2020-06-21 14:00:00 28 22 Sudoeste 32 Sudoeste 0 1021.3 -- 41
2020-06-21 13:00:00 27.9 22 Sudoeste 30 Sudoeste 0 1021.3 -- 40
2020-06-21 12:00:00 27.9 16 Sudoeste 24 Sudoeste 0 1021.4 -- 40
2020-06-21 11:00:00 27.3 10 Sudoeste 15 Sudoeste 0 1021.1 -- 41
2020-06-21 10:00:00 25.7 3 Nordeste 8 Sudeste 0 1021 -- 53
2020-06-21 09:00:00 22.8 3 Este 9 Nordeste 0 1021 -- 77
2020-06-21 08:00:00 20.1 6 Este 8 Este 0 1020.9 -- 85
2020-06-21 07:00:00 17.1 3 Este 9 Nordeste 0 1020.5 -- 94
2020-06-21 06:00:00 17.2 5 Nordeste -- -- 0 1020.3 -- 94
2020-06-21 05:00:00 17.7 5 Norte 8 Norte 0 1020.2 -- 93
2020-06-21 04:00:00 18.1 4 Norte 8 Este 0 1020.2 -- 94
2020-06-21 03:00:00 18.6 6 Este 11 Este 0 1020.5 -- 92
2020-06-21 02:00:00 18.8 7 Este 11 Este 0 1020.8 -- 90
2020-06-21 01:00:00 19.5 8 Este 13 Sudoeste 0 1021 -- 86
2020-06-21 00:00:00 21.9 11 Sudoeste 15 Sudoeste 0 1020.8 -- 84
2020-06-20 23:00:00 22.3 6 Sudoeste 18 Sudoeste 0 1020.8 -- 81
2020-06-20 22:00:00 22.6 15 Sudoeste 21 Sudoeste 0 1020 -- 78
2020-06-20 21:00:00 23.1 14 Sudoeste 22 Sudoeste 0 1019.9 -- 73
2020-06-20 20:00:00 24.4 17 Sudoeste 30 Sudoeste 0 1019.9 -- 67
2020-06-20 19:00:00 24.9 23 Sudoeste 33 Sudoeste 0 1019.8 -- 65
2020-06-20 18:00:00 25.6 27 Sudoeste 37 Sudoeste 0 1020.1 -- 65
2020-06-20 17:00:00 25.5 28 Sudoeste 41 Sudoeste 0 1020.6 -- 65
2020-06-20 16:00:00 25.9 30 Sudoeste 39 Sudoeste 0 1021 -- 61
2020-06-20 15:00:00 26.7 24 Sudoeste 37 Sudoeste 0 1021.2 -- 49
2020-06-20 14:00:00 25.8 28 Sudoeste 37 Sudoeste 0 1021.5 -- 66
2020-06-20 13:00:00 26 26 Sudoeste 32 Sudoeste 0 1021.6 -- 64
2020-06-20 12:00:00 25.2 19 Sudoeste 26 Sudoeste 0 1021.4 -- 66
2020-06-20 11:00:00 24.9 15 Sudoeste 22 Sudoeste 0 1021.3 -- 67
2020-06-20 10:00:00 24.8 5 Oeste 15 Sudoeste 0 1020.9 -- 63
2020-06-20 09:00:00 23.6 3 Sudeste 8 Sudeste 0 1021 -- 70
2020-06-20 08:00:00 20.3 5 Nordeste 8 Nordeste 0 1020.6 -- 82
2020-06-20 07:00:00 17.5 4 Nordeste 5 Nordeste 0 1020.4 -- 92
2020-06-20 06:00:00 17.1 5 Nordeste 8 Nordeste 0 1020.4 -- 93
2020-06-20 05:00:00 17.8 5 Este 8 Este 0 1020.3 -- 90
2020-06-20 04:00:00 18.4 5 Este 8 Norte 0 1020.4 -- 88
2020-06-20 03:00:00 19.2 4 Este 8 Nordeste 0 1020.6 -- 86
2020-06-20 02:00:00 20.9 5 Oeste 13 Sudoeste 0 1020.7 -- 82
2020-06-20 01:00:00 21.8 8 Oeste 17 Sudoeste 0 1020.9 -- 80
2020-06-20 00:00:00 22.2 13 Sudoeste 18 Sudoeste 0 1020.7 -- 77
2020-06-19 23:00:00 22.1 12 Sudoeste 22 Sudoeste 0 1020.4 -- 77
2020-06-19 22:00:00 22.4 15 Sudoeste 26 Sur 0 1019.7 -- 73
2020-06-19 21:00:00 22.8 18 Sur 26 Sur 0 1019.1 -- 70
2020-06-19 20:00:00 23.6 21 Sur 32 Sur 0 1018.9 -- 66
2020-06-19 19:00:00 24.5 21 Sur 37 Sudoeste 0 1018.5 -- 61
2020-06-19 18:00:00 25.1 31 Sudoeste 41 Sudoeste 0 1018.5 -- 56
2020-06-19 17:00:00 25.6 32 Sudoeste 45 Sudoeste 0 1018.3 -- 56
2020-06-19 16:00:00 26.3 30 Sudoeste 39 Oeste 0 1017.6 -- 56
2020-06-19 15:00:00 28.1 6 Este 28 Nordeste 0 1017.4 -- 40
2020-06-19 14:00:00 26.9 20 Este 32 Este 0 1017.4 -- 45
2020-06-19 13:00:00 26 17 Este 28 Este 0 1017.6 -- 51
2020-06-19 12:00:00 24.2 22 Este 30 Este 0 1017.9 -- 60
2020-06-19 11:00:00 23.1 14 Este 21 Nordeste 0 1017.9 -- 71
2020-06-19 10:00:00 22.1 14 Este 21 Este 0 1017.9 -- 77
2020-06-19 09:00:00 21.8 13 Este 21 Este 0 1017.4 -- 80
2020-06-19 08:00:00 21 15 Nordeste 21 Nordeste 0 1016.8 -- 83
2020-06-19 07:00:00 19.9 13 Este 21 Este 0 1016.6 -- 87
2020-06-19 06:00:00 19.4 11 Sudeste 17 Este 0 1016.3 -- 88
2020-06-19 05:00:00 18.9 0 Calma 15 Nordeste 0 1016.2 -- 89
2020-06-19 04:00:00 19.8 11 Este 13 Sudeste 0 1015.8 -- 86
2020-06-19 03:00:00 20.4 3 Nordeste 18 Nordeste 0 1015.5 -- 83
2020-06-19 02:00:00 20.3 6 Nordeste 9 Nordeste 0 1015.9 -- 85
2020-06-19 01:00:00 20.3 4 Nordeste 11 Este 0 1016.3 -- 85
2020-06-19 00:00:00 21 6 Nordeste 13 Este 0 1016.1 -- 82
2020-06-18 23:00:00 21.2 9 Este 17 Nordeste 0 1015.4 -- 80
2020-06-18 22:00:00 22.2 13 Este 22 Este 0 1014.3 -- 75
2020-06-18 21:00:00 23.5 16 Este 24 Este 0 1013.8 -- 70
2020-06-18 20:00:00 25.1 7 Oeste 26 Sudoeste 0 1013.4 -- 67
2020-06-18 19:00:00 24.5 17 Sudoeste 30 Sudoeste 0 1013.4 -- 69
2020-06-18 18:00:00 25.1 14 Este 28 Sur 0 1013.4 -- 62
2020-06-18 17:00:00 25.5 18 Este 35 Este 0 1013.4 -- 62
2020-06-18 16:00:00 27.4 16 Este 24 Este 0 1013.6 -- 53
2020-06-18 15:00:00 26.5 13 Sudoeste 30 Sudoeste 0 1013.7 -- 51
2020-06-18 14:00:00 26.2 24 Sudoeste 33 Sudoeste 0 1014 -- 55
2020-06-18 13:00:00 25.9 20 Sudoeste 28 Sudoeste 0 1014.3 -- 56
2020-06-18 12:00:00 25.3 15 Sudoeste 24 Sudoeste 0 1014.5 -- 58
2020-06-18 11:00:00 24.9 15 Sudoeste 24 Sudoeste 0 1013.8 -- 63
2020-06-18 10:00:00 23.9 7 Oeste 17 Sudeste 0 1013.9 -- 66
2020-06-18 09:00:00 23.6 6 Sur 13 Sudoeste 0 1013.3 -- 67
2020-06-18 08:00:00 21 4 Este 11 Este 0 1013.2 -- 83
2020-06-18 07:00:00 19 3 Nordeste 11 Este 0 1013.4 -- 90
2020-06-18 06:00:00 19.9 8 Este 11 Este 0 1013.3 -- 88
2020-06-18 05:00:00 21 5 Nordeste 11 Este 0 1013.6 -- 84
2020-06-18 04:00:00 21.2 4 Nordeste 11 Sudeste 0 1013.8 -- 84
2020-06-18 03:00:00 21.2 6 Este 11 Este 0 1014.4 -- 84
2020-06-18 02:00:00 21.8 7 Este 13 Sudeste 0 1015 -- 81
2020-06-18 01:00:00 21.9 5 Este 11 Sudeste 0 1015.2 -- 80
2020-06-18 00:00:00 22.1 6 Sudeste 15 Sudeste 0 1015.6 -- 79
2020-06-17 23:00:00 22.4 13 Sur 18 Sur 0 1015.6 -- 78
2020-06-17 22:00:00 22.5 6 Este 21 Este 0 1014.9 -- 76
2020-06-17 21:00:00 22.4 17 Este 22 Este 0 1014.3 -- 71
2020-06-17 20:00:00 23.8 7 Sur 17 Sudeste 0 1014.1 -- 70
2020-06-17 19:00:00 25 12 Sudoeste 24 Sudoeste 0 1013.8 -- 66
2020-06-17 18:00:00 25.2 15 Sudoeste 30 Sudoeste 0 1013.9 -- 64
2020-06-17 17:00:00 25.5 24 Sudoeste 33 Sudoeste 0 1014.3 -- 65
2020-06-17 16:00:00 25.8 23 Sudoeste 35 Sudoeste 0 1014.3 -- 63
2020-06-17 15:00:00 25.8 27 Sudoeste 37 Sudoeste 0 1014.5 -- 63
2020-06-17 14:00:00 24.8 19 Sudoeste 30 Sudoeste 0 1014.7 -- 64
2020-06-17 13:00:00 25.9 19 Sudoeste 26 Sudoeste 0 1015.1 -- 47
2020-06-17 12:00:00 25.7 16 Sudoeste 24 Sudoeste 0 1015.4 -- 52
2020-06-17 11:00:00 24.4 11 Nordeste 18 Nordeste 0 1015.4 -- 53
2020-06-17 10:00:00 23 9 Nordeste 21 Este 0 1015.6 -- 64
2020-06-17 09:00:00 21.4 12 Este 18 Este 0 1015.5 -- 75
2020-06-17 08:00:00 19.6 8 Nordeste 13 Nordeste 0 1015.1 -- 82
2020-06-17 07:00:00 17.7 6 Norte 13 Nordeste 0 1014.9 -- 90
2020-06-17 06:00:00 17.3 8 Nordeste 11 Nordeste 0 1014.8 -- 91
2020-06-17 05:00:00 17.3 4 Nordeste 13 Nordeste 0 1014.7 -- 91
2020-06-17 04:00:00 17.6 12 Este 15 Este 0 1014.5 -- 89
2020-06-17 03:00:00 17.9 5 Este 9 Nordeste 0 1015 -- 89
2020-06-17 02:00:00 18.5 5 Nordeste 11 Este 0 1015.2 -- 88
2020-06-17 01:00:00 19.8 4 Este -- -- 0 1015.8 -- 83
2020-06-17 00:00:00 20 4 Nordeste 9 Este 0 1015.9 -- 83
2020-06-16 23:00:00 21.1 8 Sudeste 15 Este 0 1015.8 -- 79
2020-06-16 22:00:00 -- -- -- -- -- -- -- -- --
2020-06-16 21:00:00 23 12 Nordeste 17 Nordeste 0 1014.2 -- 72
2020-06-16 20:00:00 23.6 10 Sur 22 Sudoeste 0 1014 -- 70
2020-06-16 19:00:00 24.3 17 Sudoeste 28 Sudoeste 0 1013.8 -- 68
2020-06-16 18:00:00 24.5 21 Sudoeste 32 Sudoeste 0 1014.4 -- 66
2020-06-16 17:00:00 24.7 22 Sudoeste 33 Sudoeste 0 1014.5 -- 66
2020-06-16 16:00:00 25.4 27 Sudoeste 35 Sudoeste 0 1014.7 -- 63
2020-06-16 15:00:00 25.4 29 Sudoeste 37 Sudoeste 0 1014.9 -- 66
2020-06-16 14:00:00 25.7 26 Sudoeste 33 Sudoeste 0 1015.3 -- 64
2020-06-16 13:00:00 25.5 18 Sudoeste 28 Sudoeste 0 1015.6 -- 63
2020-06-16 12:00:00 25.8 16 Sudoeste 22 Sudoeste 0 1016.4 -- 60
2020-06-16 11:00:00 25.1 11 Este 22 Este 0 1017 -- 55
2020-06-16 10:00:00 22.9 14 Este -- -- -- 1017.2 -- 66
2020-06-16 09:00:00 21.5 10 Este 15 Este 0 1017.4 -- 82
2020-06-16 08:00:00 19.8 2 Este 8 Este 0 1017 -- 92
2020-06-16 07:00:00 18.8 0 Calma 13 Nordeste 0 1016.9 -- 95
2020-06-16 06:00:00 18.7 8 Nordeste 11 Nordeste 0 1016.8 -- 95
2020-06-16 05:00:00 19 6 Este 13 Este 0 1017.1 -- 95
2020-06-16 04:00:00 19.3 11 Nordeste 13 Este 0 1017 -- 94
2020-06-16 03:00:00 19.8 11 Este 13 Este 0 1017.5 -- 94
2020-06-16 02:00:00 18.3 9 Este 11 Este 0 1017.7 -- 93
2020-06-16 01:00:00 19.1 4 Este 8 Este 0 1018.4 -- 91
2020-06-16 00:00:00 19.8 8 Este 11 Nordeste 0 1018.2 -- 91
2020-06-15 23:00:00 21.8 10 Sudoeste 17 Sudoeste 0 1018 -- 87
2020-06-15 22:00:00 22 11 Sudoeste 18 Sur 0 1017.8 -- 85
2020-06-15 21:00:00 22.6 13 Sudoeste 24 Sur 0 1017.7 -- 81
2020-06-15 20:00:00 23.7 16 Sudoeste 30 Sudoeste 0 1017.7 -- 73
2020-06-15 19:00:00 24.3 22 Sur 32 Sudoeste 0 1017.6 -- 70
2020-06-15 18:00:00 24.8 23 Sur 32 Sudoeste 0 1017.7 -- 67
2020-06-15 17:00:00 25.1 24 Sudoeste 35 Sudoeste 0 1018.2 -- 63
2020-06-15 16:00:00 25.2 26 Sudoeste 33 Sur 0 1018.4 -- 60
2020-06-15 15:00:00 25.1 23 Sudoeste 32 Sudoeste 0 1018.9 -- 60
2020-06-15 14:00:00 25.2 19 Sudoeste 28 Sudoeste 0 1019.4 -- 57
2020-06-15 13:00:00 24.6 18 Sudoeste 28 Sudoeste 0 1019.7 -- 60
2020-06-15 12:00:00 23.9 16 Sudoeste 26 Sudoeste 0 1019.8 -- 66
2020-06-15 11:00:00 23.8 14 Sudoeste 22 Sudoeste 0 1019.8 -- 69
2020-06-15 10:00:00 23.7 10 Sudoeste 18 Sudoeste 0 1019.8 -- 67
2020-06-15 09:00:00 22 5 Este 11 Este 0 1019.6 -- 59
2020-06-15 08:00:00 19.4 4 Nordeste 8 Nordeste 0 1019.4 -- 81
2020-06-15 07:00:00 15.7 6 Este 9 Nordeste 0 1019 -- 93
2020-06-15 06:00:00 14.9 4 Este -- -- 0 1018.6 -- 94
2020-06-15 05:00:00 15.1 4 Nordeste -- -- 0 1018.4 -- 94
2020-06-15 04:00:00 15.6 2 Este 5 Nordeste 0 1018.4 -- 92
2020-06-15 03:00:00 16.2 4 Este -- -- 0 1018.6 -- 89
2020-06-15 02:00:00 17 5 Nordeste -- -- 0 1019 -- 88
2020-06-15 01:00:00 17.7 3 Este 8 Norte 0 1019.2 -- 88
2020-06-15 00:00:00 19.3 5 Oeste 11 Oeste 0 1019 -- 85
2020-06-14 23:00:00 20.1 9 Oeste 13 Oeste 0 1018.8 -- 80
2020-06-14 22:00:00 21 10 Sudoeste 18 Sudoeste 0 1018.6 -- 77
2020-06-14 21:00:00 21.8 14 Sudoeste 24 Sudoeste 0 1018.2 -- 74
2020-06-14 20:00:00 22.9 17 Sudoeste 32 Sudoeste 0 1018.2 -- 68
2020-06-14 19:00:00 23.7 20 Sudoeste 35 Sudoeste 0 1017.9 -- 64
2020-06-14 18:00:00 24.2 18 Sudoeste 32 Sudoeste 0 1017.7 -- 58
2020-06-14 17:00:00 24.1 22 Sudoeste 30 Sudoeste 0 1018 -- 63
2020-06-14 16:00:00 25.1 21 Sudoeste 28 Sudoeste 0 1018.1 -- 57
2020-06-14 15:00:00 24.5 15 Sudoeste 26 Sudoeste 0 1018.3 -- 58
2020-06-14 14:00:00 23.8 19 Sudoeste 32 Sudoeste 0 1018.7 -- 60
2020-06-14 13:00:00 25.2 24 Sudoeste 32 Sudoeste 0 1018.8 -- 53
2020-06-14 12:00:00 25 17 Sudoeste 26 Sudoeste 0 1018.4 -- 55
2020-06-14 11:00:00 23.8 13 Sudoeste 21 Oeste 0 1018.2 -- 60
2020-06-14 10:00:00 23.5 10 Sudoeste 18 Sudoeste 0 1018.3 -- 61
2020-06-14 09:00:00 21.8 4 Sudoeste 9 Norte 0 1018.2 -- 65
2020-06-14 08:00:00 18.4 6 Norte 13 Nordeste 0 1017.5 -- 70
2020-06-14 07:00:00 15.1 5 Nordeste 11 Norte 0 1017 -- 83
2020-06-14 06:00:00 14.6 9 Norte 11 Noroeste 0 1016.8 -- 80
2020-06-14 05:00:00 14.7 3 Norte 13 Nordeste 0 1016.7 -- 88
2020-06-14 04:00:00 15.1 7 Este 11 Este 0 1016.9 -- 87
2020-06-14 03:00:00 16.8 5 Norte 5 Norte 0 1016.9 -- 69
2020-06-14 02:00:00 16.7 5 Nordeste 11 Este 0 1017 -- 82
2020-06-14 01:00:00 19.7 7 Oeste 17 Sudoeste 0 1017.3 -- 74
2020-06-14 00:00:00 20.7 13 Oeste 18 Sudoeste 0 1017.4 -- 66
2020-06-13 23:00:00 21 14 Oeste 18 Sudoeste 0 1016.9 -- 61
2020-06-13 22:00:00 21.4 13 Oeste 30 Sudoeste 0 1016.1 -- 56
2020-06-13 21:00:00 22.2 22 Sudoeste 33 Sudoeste 0 1015.4 -- 51
2020-06-13 20:00:00 23.1 25 Sudoeste 33 Sudoeste 0 1014.6 -- 53
2020-06-13 19:00:00 24 28 Sudoeste 42 Sudoeste 0 1014.1 -- 50
2020-06-13 18:00:00 25.3 32 Sudoeste 42 Oeste 0 1013.8 -- 41
2020-06-13 17:00:00 26.7 12 Noroeste 32 Norte 0 1013.3 -- 31
2020-06-13 16:00:00 26.8 18 Noroeste 32 Norte 0 1013.3 -- 30
2020-06-13 15:00:00 26.4 19 Noroeste 42 Sudoeste 0 1013.1 -- 37
2020-06-13 14:00:00 26.5 21 Oeste 41 Oeste 0 1012.9 -- 46
2020-06-13 13:00:00 26.4 32 Sudoeste 45 Sudoeste 0 1012.1 -- 51
2020-06-13 12:00:00 26 28 Sudoeste 35 Sudoeste 0 1011.4 -- 49
2020-06-13 11:00:00 25.5 25 Sudoeste 33 Oeste 0 1011 -- 46
2020-06-13 10:00:00 24.2 18 Sudoeste 26 Sudoeste 0 1011 -- 45
2020-06-13 09:00:00 22.9 15 Sudoeste 21 Sudoeste 0 1010.7 -- 72
2020-06-13 08:00:00 21.7 10 Oeste 18 Oeste 0 1009.9 -- 80
2020-06-13 07:00:00 20.5 12 Oeste 18 Sudoeste 0 1009.7 -- 83
2020-06-13 06:00:00 18.4 3 Nordeste 9 Este 0 1009.3 -- 93
2020-06-13 05:00:00 18.4 3 Este 8 Este 0 1009 -- 91
2020-06-13 04:00:00 18.5 4 Este 9 Este 0 1008.9 -- 90
2020-06-13 03:00:00 18.9 8 Este 11 Sur 0 1009.1 -- 87
2020-06-13 02:00:00 19.1 7 Sudeste 11 Sudeste 0 1009.2 -- 87
2020-06-13 01:00:00 19.3 9 Sur 13 Sudeste 0 1009.2 -- 86
2020-06-13 00:00:00 20.7 9 Sur 15 Sudoeste 0 1009 -- 81
2020-06-12 23:00:00 20.8 11 Sudoeste 21 Sudoeste 0 1008.8 -- 81
2020-06-12 22:00:00 21.3 13 Sudoeste 24 Sudoeste 0 1008.3 -- 79
2020-06-12 21:00:00 22 18 Sudoeste 28 Sudoeste 0 1007.6 -- 76
2020-06-12 20:00:00 22.7 20 Sudoeste 32 Sudoeste 0 1007.5 -- 71
2020-06-12 19:00:00 23.5 26 Sudoeste 35 Sudoeste 0 1006.9 -- 68
2020-06-12 18:00:00 24.5 19 Sudoeste 30 Sur 0 1006.9 -- 56
2020-06-12 17:00:00 25.1 20 Sudoeste 32 Sudoeste 0 1006.6 -- 51
2020-06-12 16:00:00 25.5 22 Sudoeste 33 Sudoeste 0 1006.5 -- 45
2020-06-12 15:00:00 25.6 24 Sudoeste 39 Sudoeste 0 1006.5 -- 46
2020-06-12 14:00:00 25.8 31 Sudoeste 46 Sudoeste 0 1006.5 -- 40
2020-06-12 13:00:00 26.3 31 Sudoeste 41 Oeste 0 1006.3 -- 41
2020-06-12 12:00:00 25.6 31 Oeste 42 Oeste 0 1006.1 -- 45
2020-06-12 11:00:00 25.8 28 Oeste 41 Sudoeste 0 1005.6 -- 43
2020-06-12 10:00:00 25.3 31 Oeste 42 Oeste 0 1005.2 -- 46
2020-06-12 09:00:00 23.8 20 Sudoeste 30 Oeste 0 1004.7 -- 66
2020-06-12 08:00:00 22.4 17 Sudoeste 28 Sudoeste 0 1004.2 -- 83
2020-06-12 07:00:00 21.3 13 Sudoeste 24 Sur 0 1003.8 -- 85
2020-06-12 06:00:00 21 18 Sur 26 Sur 0 1003.5 -- 81
2020-06-12 05:00:00 21.2 18 Sudoeste 26 Sudoeste 0 1003.6 -- 77
2020-06-12 04:00:00 21.4 17 Sudoeste 30 Sudoeste 0 1003.9 -- 74
2020-06-12 03:00:00 21.5 19 Sur 30 Sur 0 1004.1 -- 73
2020-06-12 02:00:00 19.4 7 Sudeste 26 Sudoeste 0 1004.3 -- 78
2020-06-12 01:00:00 21.3 21 Sur 28 Sur 0 1004.7 -- 70
2020-06-12 00:00:00 21.3 17 Sur 26 Sudoeste 0 1004.8 -- 69
2020-06-11 23:00:00 21.4 15 Sur 24 Sudoeste 0 1005.1 -- 78
2020-06-11 22:00:00 21.6 15 Sudoeste 22 Sudoeste 0 1004.8 -- 80
2020-06-11 21:00:00 21.8 14 Sur 21 Sur 0 1004.9 -- 82
2020-06-11 20:00:00 22.7 16 Sur 26 Sudoeste 0 1005.1 -- 75
2020-06-11 19:00:00 22.9 19 Sur 28 Sudoeste 0 1005.4 -- 73
2020-06-11 18:00:00 23.6 19 Sudoeste 32 Sur 0 1005.8 -- 70
2020-06-11 17:00:00 24.3 22 Sudoeste 32 Sur 0 1006.5 -- 65
2020-06-11 16:00:00 24.9 26 Sur 37 Sudoeste 0 1007 -- 63
2020-06-11 15:00:00 25.5 25 Sudoeste 37 Sur 0 1007.5 -- 62
2020-06-11 14:00:00 24.9 25 Sur 37 Sudoeste 0 1008.2 -- 63
2020-06-11 13:00:00 24.2 25 Sudoeste 37 Sudoeste 0 1008.7 -- 63
2020-06-11 12:00:00 24.1 19 Sur 30 Sudoeste 0 1009.1 -- 65
2020-06-11 11:00:00 23.6 21 Sudoeste 32 Sudoeste 0 1009.4 -- 69
2020-06-11 10:00:00 21.6 15 Sur 24 Sur 0 1009.8 -- 78
2020-06-11 09:00:00 20.4 9 Sudoeste 21 Sudoeste 0 1010.2 -- 83
2020-06-11 08:00:00 18.9 5 Sudeste 8 Sudeste 0 1010.5 -- 93
2020-06-11 07:00:00 18.4 4 Norte 8 Noroeste 0 1010.8 -- 94
2020-06-11 06:00:00 18.5 3 Norte 8 Noroeste 0 1011 -- 93
2020-06-11 05:00:00 18.7 6 Nordeste 11 Sudeste 0 1011.2 -- 93
2020-06-11 04:00:00 18.8 9 Sudeste 13 Sudeste 0 1011.2 -- 91
2020-06-11 03:00:00 19.5 6 Sudoeste 9 Norte 0 1012.9 -- 88
2020-06-11 02:00:00 19.9 0 Calma 17 Oeste 0 1013.1 -- 84
2020-06-11 01:00:00 20.5 4 Norte 22 Oeste 0 1013.3 -- 81
2020-06-11 00:00:00 20.8 12 Sudoeste 18 Sudoeste 0 1013.3 -- 81
2020-06-10 23:00:00 20.8 14 Sudoeste 24 Sudoeste 0 1013.7 -- 78
2020-06-10 22:00:00 21.2 15 Sudoeste 22 Sudoeste 0 1013.4 -- 76
2020-06-10 21:00:00 21.1 14 Sudoeste 22 Sudoeste 0 1013.3 -- 74
2020-06-10 20:00:00 21.6 19 Sudoeste 30 Sudoeste 0 1013.3 -- 70
2020-06-10 19:00:00 22.9 21 Sudoeste 33 Sudoeste 0 1013.4 -- 62
2020-06-10 18:00:00 22.9 25 Sudoeste 37 Sudoeste 0 1013.5 -- 62
2020-06-10 17:00:00 23.8 26 Sudoeste 37 Sudoeste 0 1013.9 -- 59
2020-06-10 16:00:00 23.7 23 Sudoeste 35 Sudoeste 0 1014.4 -- 56
2020-06-10 15:00:00 23.6 21 Sudoeste 32 Sur 0 1015 -- 57
2020-06-10 14:00:00 23.8 22 Sudoeste 30 Sudoeste 0 1015.4 -- 54
2020-06-10 13:00:00 23.4 16 Sudoeste 24 Sudoeste 0 1015.4 -- 59
2020-06-10 12:00:00 20.6 4 Norte 15 Norte 0 1016 -- 68
2020-06-10 11:00:00 19.2 11 Norte 21 Sudoeste 0.5 1016.1 -- 72
2020-06-10 10:00:00 22.3 11 Sudoeste 17 Oeste 0 1015.9 -- 59
2020-06-10 09:00:00 18.9 5 Este 9 Este 0 1016 -- 64
2020-06-10 08:00:00 16.5 3 Noroeste 15 Oeste 0 1015.8 -- 76
2020-06-10 07:00:00 13 2 Nordeste -- -- 0 1015.8 -- 88
2020-06-10 06:00:00 12.3 5 Nordeste 5 Nordeste 0 1015.8 -- 91
2020-06-10 05:00:00 12.3 4 Noroeste 9 Noroeste 0 1015.8 -- 91
2020-06-10 04:00:00 12.6 5 Este 11 Este 0 1015.9 -- 89
2020-06-10 03:00:00 12.9 8 Este 11 Nordeste 0 1016.3 -- 91
2020-06-10 02:00:00 13.9 4 Nordeste 11 Este 0 1016.7 -- 86
2020-06-10 01:00:00 14.4 5 Norte 9 Norte 0 1017 -- 86
2020-06-10 00:00:00 16 6 Este 15 Nordeste 0 1016.8 -- 80
2020-06-09 23:00:00 18.5 10 Oeste 13 Oeste 0 1016.7 -- 65
2020-06-09 22:00:00 19.1 9 Oeste 21 Sudoeste 0 1015.9 -- 65
2020-06-09 21:00:00 20.4 18 Sudoeste 26 Sudoeste 0 1015.3 -- 58
2020-06-09 20:00:00 21.5 22 Sudoeste 32 Sudoeste 0 1015 -- 53
2020-06-09 19:00:00 22.1 24 Sudoeste 33 Sudoeste 0 1014.8 -- 51
2020-06-09 18:00:00 22.5 28 Sudoeste 42 Sudoeste 0 1015 -- 50
2020-06-09 17:00:00 22.8 31 Sudoeste 42 Sudoeste 0 1015.2 -- 52
2020-06-09 16:00:00 22.6 30 Sudoeste 42 Sudoeste 0 1015.3 -- 55
2020-06-09 15:00:00 22.9 30 Sudoeste 42 Sudoeste 0 1015.5 -- 53
2020-06-09 14:00:00 22.9 31 Sudoeste 42 Sudoeste 0 1015.8 -- 52
2020-06-09 13:00:00 22.7 23 Sudoeste 33 Sur 0 1016.1 -- 54
2020-06-09 12:00:00 22.6 18 Sur 22 Sudoeste 0 1016 -- 57
2020-06-09 11:00:00 21.7 14 Sudoeste 18 Sur 0 1015.6 -- 61
2020-06-09 10:00:00 20.9 4 Este 9 Norte 0 1015.6 -- 63
2020-06-09 09:00:00 18.3 2 Este 5 Este 0 1015.5 -- 75
2020-06-09 08:00:00 14.6 4 Este -- -- 0 1015.2 -- 89
2020-06-09 07:00:00 12.5 4 Este 5 Este 0 1015 -- 96
2020-06-09 06:00:00 12.2 3 Noroeste 11 Nordeste 0 1015 -- 97
2020-06-09 05:00:00 12 5 Este 8 Nordeste 0 1014.4 -- 96
2020-06-09 04:00:00 12.5 7 Este -- -- 0 1014.8 -- 96
2020-06-09 03:00:00 12.9 5 Este 9 Nordeste 0 1014.8 -- 96
2020-06-09 02:00:00 13.7 2 Este 13 Nordeste 0 1015.2 -- 95
2020-06-09 01:00:00 14.4 5 Nordeste 9 Norte 0 1014.9 -- 94
2020-06-09 00:00:00 15.1 7 Norte 13 Norte 0 1014.9 -- 92
2020-06-08 23:00:00 16.2 7 Norte 9 Norte 0 1014.6 -- 89
2020-06-08 22:00:00 17 -- -- -- -- 0 1013.9 -- 87
2020-06-08 21:00:00 18 5 Norte 18 Este 0 1013.4 -- 84
2020-06-08 20:00:00 18.7 14 Este 18 Este 0 1013 -- 79
2020-06-08 19:00:00 18.4 10 Nordeste 18 Nordeste 0 1012.8 -- 83
2020-06-08 18:00:00 18.5 13 Este 18 Este 0 1012.8 -- 80
2020-06-08 17:00:00 18.6 12 Este 17 Este 0 1013.1 -- 83
2020-06-08 16:00:00 17.4 10 Nordeste 15 Nordeste 0.1 1013.4 -- 87
2020-06-08 15:00:00 16.8 11 Nordeste 18 Nordeste 0.8 1013.5 -- 87
2020-06-08 14:00:00 18.4 13 Este 22 Nordeste 0 1013.2 -- 72
2020-06-08 13:00:00 19.1 12 Nordeste 26 Norte 0 1013.1 -- 70
2020-06-08 12:00:00 19.1 14 Nordeste 28 Norte 0 1012.8 -- 77
2020-06-08 11:00:00 20.3 16 Este 24 Nordeste 0 1012.2 -- 63
2020-06-08 10:00:00 19.7 16 Este 30 Este 0 1012 -- 69
2020-06-08 09:00:00 19.6 11 Este 21 Este 0 1011.7 -- 71
2020-06-08 08:00:00 18 4 Este 11 Norte 0 1011.4 -- 81
2020-06-08 07:00:00 15.6 4 Norte 11 Este 0 1011.1 -- 92
2020-06-08 06:00:00 16.4 10 Este 13 Este 0 1010.4 -- 89
2020-06-08 05:00:00 16.1 7 Nordeste 26 Nordeste 0 1010.3 -- 89
2020-06-08 04:00:00 16.6 13 Norte 24 Nordeste 0 1010.4 -- 86
2020-06-08 03:00:00 16.6 14 Nordeste 33 Este 0 1009.9 -- 91
2020-06-08 02:00:00 16.7 26 Este 35 Este 0 1009.5 -- 91
2020-06-08 01:00:00 16.9 25 Este 37 Este 13.1 1010.6 -- 94
2020-06-08 00:00:00 18.7 17 Nordeste 35 Nordeste 1.9 1011.9 -- 88
2020-06-07 23:00:00 19.8 25 Este 39 Este 0 1010.1 -- 80
2020-06-07 22:00:00 19.7 19 Este 32 Este 0 1009.8 -- 79
2020-06-07 21:00:00 20.2 24 Este 35 Este 0 1009.1 -- 77
2020-06-07 20:00:00 21.3 24 Este 35 Nordeste 0 1008.9 -- 75
2020-06-07 19:00:00 23 27 Este 37 Este 0 1008.1 -- 67
2020-06-07 18:00:00 23.7 26 Este 39 Este 0 1008 -- 65
2020-06-07 17:00:00 22 26 Este 52 Nordeste 0 1007.5 -- 72
2020-06-07 16:00:00 23.8 27 Este 41 Este 0 1007.3 -- 64
2020-06-07 15:00:00 27.4 17 Sudoeste 24 Sur 0 1006.4 -- 54
2020-06-07 14:00:00 27.6 17 Sudoeste 26 Sudoeste 0 1006.1 -- 51
2020-06-07 13:00:00 27.2 21 Sudoeste 32 Oeste 0 1006.2 -- 54
2020-06-07 12:00:00 26.5 5 Norte 15 Oeste 0 1005.7 -- 50
2020-06-07 11:00:00 24.4 10 Norte 18 Norte 0 1005.3 -- 67
2020-06-07 10:00:00 22.7 8 Noroeste 28 Oeste 0 1005.3 -- 73
2020-06-07 09:00:00 21.9 7 Este 24 Nordeste 0 1005 -- 73
2020-06-07 08:00:00 20.5 12 Norte 18 Norte 0 1004.2 -- 80
2020-06-07 07:00:00 17.8 6 Nordeste 21 Sudeste 0 1003.9 -- 92
2020-06-07 06:00:00 17.4 5 Norte 13 Noroeste 0 1004.4 -- 92
2020-06-07 05:00:00 17.6 4 Nordeste 8 Este 0 1004.7 -- 93
2020-06-07 04:00:00 17.5 4 Nordeste 8 Nordeste 0 1005 -- 92
2020-06-07 03:00:00 17.4 6 Norte 11 Norte 0 1005.4 -- 94
2020-06-07 02:00:00 17.6 8 Norte 9 Norte 0 1005.4 -- 93
2020-06-07 01:00:00 18.9 4 Sur 8 Sudeste 0 1006 -- 90
2020-06-07 00:00:00 19.3 4 Nordeste 11 Sur 0 1006.7 -- 87
2020-06-06 23:00:00 21 8 Sur 13 Sur 0 1006.7 -- 84
2020-06-06 22:00:00 21.6 11 Sudoeste 17 Sudoeste 0 1006.8 -- 81
2020-06-06 21:00:00 21.9 12 Sudoeste 21 Sur 0 1006.7 -- 79
2020-06-06 20:00:00 22.3 15 Sur 26 Sur 0 1007.1 -- 78
2020-06-06 19:00:00 23.2 19 Sudoeste 28 Sudoeste 0 1007.4 -- 75
2020-06-06 18:00:00 23.6 15 Sudoeste 28 Sudoeste 0 1007.7 -- 74
2020-06-06 17:00:00 24.1 15 Sudoeste 28 Sudoeste 0 1008.7 -- 71
2020-06-06 16:00:00 24.4 18 Sudoeste 30 Sudoeste 0 1009.5 -- 70
2020-06-06 15:00:00 24.5 21 Sudoeste 33 Sudoeste 0 1009.9 -- 69
2020-06-06 14:00:00 24.8 21 Sudoeste 32 Sur 0 1010 -- 68
2020-06-06 13:00:00 24.4 18 Sudoeste 30 Sur 0 1010.7 -- 68
2020-06-06 12:00:00 24 16 Sudoeste 30 Sudoeste 0 1010.6 -- 70
2020-06-06 11:00:00 23.6 12 Sudoeste 24 Sudoeste 0 1010.7 -- 69
2020-06-06 10:00:00 22.9 9 Sudoeste 17 Sur 0 1011.3 -- 75
2020-06-06 09:00:00 20.5 3 Sur 8 Sudoeste 0 1011.3 -- 79
2020-06-06 08:00:00 17.9 3 Nordeste 9 Norte 0 1011 -- 77
2020-06-06 07:00:00 15.3 4 Norte 8 Norte 0 1010.9 -- 82
2020-06-06 06:00:00 14 5 Oeste 8 Nordeste 0 1010.9 -- 87
2020-06-06 05:00:00 14.3 5 Nordeste 8 Norte 0 1010.8 -- 79
2020-06-06 04:00:00 15 3 Noroeste 9 Norte 0 1011.1 -- 76
2020-06-06 03:00:00 15.4 5 Noroeste 8 Norte 0 1011.8 -- 84
2020-06-06 02:00:00 16.2 7 Este 11 Este 0 1011.7 -- 83
2020-06-06 01:00:00 17.8 5 Este 13 Oeste 0 1012.3 -- 78
2020-06-06 00:00:00 20.1 12 Oeste 18 Oeste 0 1012.5 -- 73
2020-06-05 23:00:00 20.3 15 Oeste 32 Oeste 0 1012.2 -- 68
2020-06-05 22:00:00 20.6 23 Oeste 33 Oeste 0 1011.5 -- 60
2020-06-05 21:00:00 21.9 21 Sudoeste 26 Sudoeste 0 1010.6 -- 50
2020-06-05 20:00:00 23.1 21 Sudoeste 32 Sudoeste 0 1010.3 -- 46
2020-06-05 19:00:00 24.3 11 Oeste 26 Oeste 0 1010 -- 40
2020-06-05 18:00:00 24.9 15 Noroeste 28 Oeste 0 1009.9 -- 39
2020-06-05 17:00:00 24.9 23 Oeste 46 Sudoeste 0 1010 -- 41
2020-06-05 16:00:00 25.4 15 Oeste 30 Norte 0 1010.2 -- 39
2020-06-05 15:00:00 24.7 19 Noroeste 37 Norte 0 1010.5 -- 40
2020-06-05 14:00:00 24.1 23 Noroeste 48 Noroeste 0 1010.5 -- 40
2020-06-05 13:00:00 23.7 32 Noroeste 48 Norte 0 1010.1 -- 37
2020-06-05 12:00:00 23.5 19 Noroeste 39 Noroeste 0 1010.2 -- 43
2020-06-05 11:00:00 23.2 18 Noroeste 42 Noroeste 0 1009.4 -- 41
2020-06-05 10:00:00 21.9 32 Noroeste 58 Noroeste 0 1009.3 -- 49
2020-06-05 09:00:00 21 28 Noroeste 46 Noroeste 0 1008.1 -- 55
2020-06-05 08:00:00 19.9 19 Noroeste 30 Noroeste 0 1007.8 -- 61
2020-06-05 07:00:00 18.8 10 Sudoeste 32 Oeste 0 1007.6 -- 65
2020-06-05 06:00:00 18.6 17 Oeste 42 Oeste 0 1006.4 -- 64
2020-06-05 05:00:00 19.1 23 Noroeste 39 Oeste 0 1006.2 -- 60
2020-06-05 04:00:00 19.6 11 Oeste 32 Oeste 0 1006.4 -- 54
2020-06-05 03:00:00 19.6 15 Noroeste 26 Noroeste 0 1006.1 -- 60
2020-06-05 02:00:00 19.3 12 Oeste 21 Noroeste 0 1005.9 -- 72
2020-06-05 01:00:00 19 12 Oeste 17 Oeste 0 1006.2 -- 79
2020-06-05 00:00:00 19.4 14 Oeste 22 Oeste 0 1006 -- 76
2020-06-04 23:00:00 19.4 8 Sudoeste 13 Sudoeste 0 1005.8 -- 77
2020-06-04 22:00:00 18.8 2 Sur 28 Oeste 0 1004.9 -- 76
2020-06-04 21:00:00 19 16 Oeste 32 Oeste 0 1004.2 -- 73
2020-06-04 20:00:00 20.1 19 Oeste 33 Oeste 0 1003.7 -- 68
2020-06-04 19:00:00 20.3 22 Oeste 33 Sudoeste 0 1003.3 -- 68
2020-06-04 18:00:00 19.2 19 Sudoeste 24 Oeste 0.1 1003.8 -- 75
2020-06-04 17:00:00 17.9 7 Oeste 32 Noroeste 1 1003.8 -- 80
2020-06-04 16:00:00 20.6 19 Noroeste 42 Noroeste 0 1003.5 -- 59
2020-06-04 15:00:00 21 27 Noroeste 54 Noroeste 0.3 1003.5 -- 65
2020-06-04 14:00:00 25 24 Noroeste 45 Sudoeste 0 1002.6 -- 55
2020-06-04 13:00:00 27.4 33 Sudoeste 42 Sudoeste 0 1002 -- 50
2020-06-04 12:00:00 25.7 21 Sudoeste 30 Sudoeste 0 1002 -- 61
2020-06-04 11:00:00 25.2 18 Sudoeste 26 Sur 0 1001.9 -- 63
2020-06-04 10:00:00 23.7 15 Sudoeste 21 Sudoeste 0 1001.9 -- 69
2020-06-04 09:00:00 22.6 13 Sudoeste 18 Sudoeste 0 1001.8 -- 75
2020-06-04 08:00:00 21.5 3 Oeste 5 Sudoeste 0 1001.8 -- 76
2020-06-04 07:00:00 19.4 0 Calma 8 Este 0 1001.9 -- 85
2020-06-04 06:00:00 19.6 3 Nordeste 9 Norte 0 1001.7 -- 84
2020-06-04 05:00:00 18.6 4 Norte 8 Este 0 1002.2 -- 88
2020-06-04 04:00:00 17.9 3 Nordeste 8 Este 0 1002.8 -- 91
2020-06-04 03:00:00 18.5 6 Este -- -- -- 1003.6 -- 87
2020-06-04 02:00:00 20.5 14 Sur 22 Sur 0 1004.6 -- 82
2020-06-04 01:00:00 20.8 15 Sudoeste 21 Sudoeste 0 1005.2 -- 78
2020-06-04 00:00:00 21 8 Oeste 22 Sudoeste 0 1006 -- 78
2020-06-03 23:00:00 21.3 14 Sudoeste 22 Sur 0 1005.9 -- 77
2020-06-03 22:00:00 21.3 15 Sur 28 Sur 0 1006.1 -- 78
2020-06-03 21:00:00 21.6 21 Sudoeste 28 Sur 0 1005.6 -- 78
2020-06-03 20:00:00 22.9 20 Sudoeste 28 Sudoeste 0 1006 -- 68
2020-06-03 19:00:00 23.5 17 Sudoeste 30 Sudoeste 0 1006.4 -- 64
2020-06-03 18:00:00 24.4 20 Sudoeste 32 Sudoeste 0 1006.8 -- 54
2020-06-03 17:00:00 25.2 19 Sudoeste 30 Sudoeste 0 1007.5 -- 45
2020-06-03 16:00:00 25.1 20 Sudoeste 33 Sudoeste 0 1008.6 -- 50
2020-06-03 15:00:00 25 23 Sudoeste 33 Sudoeste 0 1009.3 -- 53
2020-06-03 14:00:00 25.5 23 Sudoeste 33 Sudoeste 0 1009.8 -- 48
2020-06-03 13:00:00 24.9 21 Sudoeste 30 Sudoeste 0 1010.2 -- 48
2020-06-03 12:00:00 24.3 17 Sudoeste 26 Sudoeste 0 1010.8 -- 56
2020-06-03 11:00:00 23.9 13 Sudoeste 18 Oeste 0 1011 -- 57
2020-06-03 10:00:00 23.7 12 Sudoeste 17 Sudoeste 0 1011.2 -- 50
2020-06-03 09:00:00 21.3 2 Nordeste 5 Nordeste 0 1011.4 -- 57
2020-06-03 08:00:00 18 3 Nordeste -- -- 0 1011.6 -- 74
2020-06-03 07:00:00 16.9 3 Nordeste -- -- 0 1011.6 -- 78
2020-06-03 06:00:00 16.1 0 Calma 5 Nordeste 0 1011.3 -- 81
2020-06-03 05:00:00 15.4 5 Nordeste 9 Este 0 1011.5 -- 86
2020-06-03 04:00:00 16.4 3 Este 9 Este 0 1012.2 -- 84
2020-06-03 03:00:00 17.2 9 Este 9 Este 0 1012.8 -- 81
2020-06-03 02:00:00 18.6 0 Calma -- -- 0 1013.4 -- 77
2020-06-03 01:00:00 19.8 6 Este 11 Sur 0 1013.6 -- 73
2020-06-03 00:00:00 21.1 6 Sur 11 Sur 0 1014 -- 65